sensor_id;sensor_type;location;lat;lon;timestamp;temperature;humidity
8595;DHT22;4335;48.860;9.198;2023-06-22T00:02:31;21.90;99.90
8595;DHT22;4335;48.860;9.198;2023-06-22T00:04:58;21.90;99.90
8595;DHT22;4335;48.860;9.198;2023-06-22T00:07:32;21.80;99.90
8595;DHT22;4335;48.860;9.198;2023-06-22T00:09:59;21.90;99.90
8595;DHT22;4335;48.860;9.198;2023-06-22T00:12:27;21.90;99.90
8595;DHT22;4335;48.860;9.198;2023-06-22T00:15:06;21.80;99.90
8595;DHT22;4335;48.860;9.198;2023-06-22T00:17:37;21.80;99.90
8595;DHT22;4335;48.860;9.198;2023-06-22T00:20:05;21.80;99.90
8595;DHT22;4335;48.860;9.198;2023-06-22T00:22:33;21.80;99.90
8595;DHT22;4335;48.860;9.198;2023-06-22T00:25:12;21.70;99.90
8595;DHT22;4335;48.860;9.198;2023-06-22T00:27:39;21.70;99.90
8595;DHT22;4335;48.860;9.198;2023-06-22T00:30:10;21.70;99.90
8595;DHT22;4335;48.860;9.198;2023-06-22T00:32:37;21.70;99.90
8595;DHT22;4335;48.860;9.198;2023-06-22T00:35:05;21.60;99.90
8595;DHT22;4335;48.860;9.198;2023-06-22T00:37:32;21.60;99.90
8595;DHT22;4335;48.860;9.198;2023-06-22T00:40:01;21.60;99.90
8595;DHT22;4335;48.860;9.198;2023-06-22T00:42:35;21.60;99.90
8595;DHT22;4335;48.860;9.198;2023-06-22T00:45:03;21.60;99.90
8595;DHT22;4335;48.860;9.198;2023-06-22T00:47:32;21.60;99.90
8595;DHT22;4335;48.860;9.198;2023-06-22T00:50:00;21.60;99.90
8595;DHT22;4335;48.860;9.198;2023-06-22T00:52:31;21.50;99.90
8595;DHT22;4335;48.860;9.198;2023-06-22T00:55:08;21.50;99.90
8595;DHT22;4335;48.860;9.198;2023-06-22T00:57:36;21.50;99.90
8595;DHT22;4335;48.860;9.198;2023-06-22T01:00:07;21.50;99.90
8595;DHT22;4335;48.860;9.198;2023-06-22T01:02:49;21.40;99.90
8595;DHT22;4335;48.860;9.198;2023-06-22T01:05:21;21.40;99.90
8595;DHT22;4335;48.860;9.198;2023-06-22T01:08:04;21.40;99.90
8595;DHT22;4335;48.860;9.198;2023-06-22T01:10:40;21.40;99.90
8595;DHT22;4335;48.860;9.198;2023-06-22T01:13:15;21.30;99.90
8595;DHT22;4335;48.860;9.198;2023-06-22T01:15:45;21.30;99.90
8595;DHT22;4335;48.860;9.198;2023-06-22T01:18:17;21.30;99.90
8595;DHT22;4335;48.860;9.198;2023-06-22T01:20:45;21.30;99.90
8595;DHT22;4335;48.860;9.198;2023-06-22T01:23:25;21.30;99.90
8595;DHT22;4335;48.860;9.198;2023-06-22T01:26:02;21.30;99.90
8595;DHT22;4335;48.860;9.198;2023-06-22T01:28:49;21.30;99.90
8595;DHT22;4335;48.860;9.198;2023-06-22T01:31:19;21.30;99.90
8595;DHT22;4335;48.860;9.198;2023-06-22T01:33:50;21.20;99.90
8595;DHT22;4335;48.860;9.198;2023-06-22T01:36:18;21.20;99.90
8595;DHT22;4335;48.860;9.198;2023-06-22T01:38:47;21.20;99.90
8595;DHT22;4335;48.860;9.198;2023-06-22T01:41:15;21.10;99.90
8595;DHT22;4335;48.860;9.198;2023-06-22T01:43:46;21.10;99.90
8595;DHT22;4335;48.860;9.198;2023-06-22T01:46:21;21.10;99.90
8595;DHT22;4335;48.860;9.198;2023-06-22T01:48:50;21.00;99.90
8595;DHT22;4335;48.860;9.198;2023-06-22T01:51:18;21.00;99.90
8595;DHT22;4335;48.860;9.198;2023-06-22T01:53:51;21.00;99.90
8595;DHT22;4335;48.860;9.198;2023-06-22T01:56:21;21.00;99.90
8595;DHT22;4335;48.860;9.198;2023-06-22T01:58:53;20.90;99.90
8595;DHT22;4335;48.860;9.198;2023-06-22T02:01:27;20.90;99.90
8595;DHT22;4335;48.860;9.198;2023-06-22T02:04:05;20.90;99.90
8595;DHT22;4335;48.860;9.198;2023-06-22T02:06:38;20.90;99.90
8595;DHT22;4335;48.860;9.198;2023-06-22T02:09:09;20.90;99.90
8595;DHT22;4335;48.860;9.198;2023-06-22T02:11:43;20.90;99.90
8595;DHT22;4335;48.860;9.198;2023-06-22T02:14:15;20.80;99.90
8595;DHT22;4335;48.860;9.198;2023-06-22T02:16:47;20.90;99.90
8595;DHT22;4335;48.860;9.198;2023-06-22T02:19:15;20.80;99.90
8595;DHT22;4335;48.860;9.198;2023-06-22T02:21:44;20.80;99.90
8595;DHT22;4335;48.860;9.198;2023-06-22T02:24:11;20.80;99.90
8595;DHT22;4335;48.860;9.198;2023-06-22T02:26:42;20.80;99.90
8595;DHT22;4335;48.860;9.198;2023-06-22T02:29:14;20.70;99.90
8595;DHT22;4335;48.860;9.198;2023-06-22T02:31:41;20.70;99.90
8595;DHT22;4335;48.860;9.198;2023-06-22T02:34:13;20.70;99.90
8595;DHT22;4335;48.860;9.198;2023-06-22T02:36:47;20.70;99.90
8595;DHT22;4335;48.860;9.198;2023-06-22T02:39:19;20.70;99.90
8595;DHT22;4335;48.860;9.198;2023-06-22T02:41:48;20.70;99.90
8595;DHT22;4335;48.860;9.198;2023-06-22T02:44:16;20.60;99.90
8595;DHT22;4335;48.860;9.198;2023-06-22T02:46:43;20.60;99.90
8595;DHT22;4335;48.860;9.198;2023-06-22T02:49:15;20.50;99.90
8595;DHT22;4335;48.860;9.198;2023-06-22T02:51:45;20.50;99.90
8595;DHT22;4335;48.860;9.198;2023-06-22T02:54:13;20.50;99.90
8595;DHT22;4335;48.860;9.198;2023-06-22T02:56:41;20.40;99.90
8595;DHT22;4335;48.860;9.198;2023-06-22T02:59:09;20.40;99.90
8595;DHT22;4335;48.860;9.198;2023-06-22T03:01:37;20.40;99.90
8595;DHT22;4335;48.860;9.198;2023-06-22T03:04:06;20.30;99.90
8595;DHT22;4335;48.860;9.198;2023-06-22T03:06:35;20.30;99.90
8595;DHT22;4335;48.860;9.198;2023-06-22T03:09:06;20.30;99.90
8595;DHT22;4335;48.860;9.198;2023-06-22T03:11:37;20.30;99.90
8595;DHT22;4335;48.860;9.198;2023-06-22T03:14:04;20.20;99.90
8595;DHT22;4335;48.860;9.198;2023-06-22T03:16:50;20.20;99.90
8595;DHT22;4335;48.860;9.198;2023-06-22T03:19:20;20.20;99.90
8595;DHT22;4335;48.860;9.198;2023-06-22T03:21:52;20.20;99.90
8595;DHT22;4335;48.860;9.198;2023-06-22T03:24:20;20.20;99.90
8595;DHT22;4335;48.860;9.198;2023-06-22T03:26:50;20.10;99.90
8595;DHT22;4335;48.860;9.198;2023-06-22T03:29:20;20.10;99.90
8595;DHT22;4335;48.860;9.198;2023-06-22T03:31:51;20.10;99.90
8595;DHT22;4335;48.860;9.198;2023-06-22T03:34:25;20.10;99.90
8595;DHT22;4335;48.860;9.198;2023-06-22T03:36:54;20.10;99.90
8595;DHT22;4335;48.860;9.198;2023-06-22T03:39:24;20.00;99.90
8595;DHT22;4335;48.860;9.198;2023-06-22T03:41:54;20.00;99.90
8595;DHT22;4335;48.860;9.198;2023-06-22T03:44:22;20.10;99.90
8595;DHT22;4335;48.860;9.198;2023-06-22T03:46:52;20.10;99.90
8595;DHT22;4335;48.860;9.198;2023-06-22T03:49:37;20.20;99.90
8595;DHT22;4335;48.860;9.198;2023-06-22T03:52:07;20.20;99.90
8595;DHT22;4335;48.860;9.198;2023-06-22T03:54:35;20.20;99.90
8595;DHT22;4335;48.860;9.198;2023-06-22T03:57:11;20.20;99.90
8595;DHT22;4335;48.860;9.198;2023-06-22T03:59:39;20.20;99.90
8595;DHT22;4335;48.860;9.198;2023-06-22T04:02:09;20.30;99.90
8595;DHT22;4335;48.860;9.198;2023-06-22T04:04:43;20.30;99.90
8595;DHT22;4335;48.860;9.198;2023-06-22T04:07:14;20.40;99.90
8595;DHT22;4335;48.860;9.198;2023-06-22T04:09:41;20.40;99.90
8595;DHT22;4335;48.860;9.198;2023-06-22T04:12:12;20.40;99.90
8595;DHT22;4335;48.860;9.198;2023-06-22T04:14:39;20.50;99.90
8595;DHT22;4335;48.860;9.198;2023-06-22T04:17:09;20.60;99.90
8595;DHT22;4335;48.860;9.198;2023-06-22T04:19:40;20.70;99.90
8595;DHT22;4335;48.860;9.198;2023-06-22T04:22:07;20.80;99.90
8595;DHT22;4335;48.860;9.198;2023-06-22T04:24:40;20.90;99.90
8595;DHT22;4335;48.860;9.198;2023-06-22T04:27:10;21.10;99.90
8595;DHT22;4335;48.860;9.198;2023-06-22T04:29:37;21.20;99.90
8595;DHT22;4335;48.860;9.198;2023-06-22T04:32:26;21.30;99.90
8595;DHT22;4335;48.860;9.198;2023-06-22T04:34:53;21.40;99.90
8595;DHT22;4335;48.860;9.198;2023-06-22T04:37:23;21.60;99.90
8595;DHT22;4335;48.860;9.198;2023-06-22T04:39:52;21.60;99.90
8595;DHT22;4335;48.860;9.198;2023-06-22T04:42:24;21.80;99.90
8595;DHT22;4335;48.860;9.198;2023-06-22T04:44:52;22.00;99.90
8595;DHT22;4335;48.860;9.198;2023-06-22T04:47:28;22.20;99.90
8595;DHT22;4335;48.860;9.198;2023-06-22T04:49:56;22.40;99.90
8595;DHT22;4335;48.860;9.198;2023-06-22T04:52:23;22.70;99.90
8595;DHT22;4335;48.860;9.198;2023-06-22T04:55:11;22.90;99.90
8595;DHT22;4335;48.860;9.198;2023-06-22T04:57:44;23.00;99.90
8595;DHT22;4335;48.860;9.198;2023-06-22T05:00:15;23.20;99.90
8595;DHT22;4335;48.860;9.198;2023-06-22T05:02:46;23.40;99.90
8595;DHT22;4335;48.860;9.198;2023-06-22T05:05:13;23.50;99.90
8595;DHT22;4335;48.860;9.198;2023-06-22T05:07:42;23.70;99.90
8595;DHT22;4335;48.860;9.198;2023-06-22T05:10:15;23.90;99.90
8595;DHT22;4335;48.860;9.198;2023-06-22T05:12:42;24.10;99.90
8595;DHT22;4335;48.860;9.198;2023-06-22T05:15:12;24.30;99.90
8595;DHT22;4335;48.860;9.198;2023-06-22T05:17:40;24.40;99.90
8595;DHT22;4335;48.860;9.198;2023-06-22T05:20:09;24.60;99.90
8595;DHT22;4335;48.860;9.198;2023-06-22T05:22:43;24.80;99.90
8595;DHT22;4335;48.860;9.198;2023-06-22T05:25:22;25.00;99.90
8595;DHT22;4335;48.860;9.198;2023-06-22T05:27:50;25.20;99.90
8595;DHT22;4335;48.860;9.198;2023-06-22T05:30:17;25.40;99.90
8595;DHT22;4335;48.860;9.198;2023-06-22T05:32:51;25.60;99.90
8595;DHT22;4335;48.860;9.198;2023-06-22T05:35:21;25.60;99.90
8595;DHT22;4335;48.860;9.198;2023-06-22T05:37:48;25.90;99.90
8595;DHT22;4335;48.860;9.198;2023-06-22T05:40:17;25.90;99.90
8595;DHT22;4335;48.860;9.198;2023-06-22T05:42:48;26.10;99.90
8595;DHT22;4335;48.860;9.198;2023-06-22T05:45:15;26.40;99.90
8595;DHT22;4335;48.860;9.198;2023-06-22T05:47:43;26.60;99.90
8595;DHT22;4335;48.860;9.198;2023-06-22T05:50:10;26.80;99.90
8595;DHT22;4335;48.860;9.198;2023-06-22T05:52:40;26.70;99.90
8595;DHT22;4335;48.860;9.198;2023-06-22T05:55:14;26.70;99.90
8595;DHT22;4335;48.860;9.198;2023-06-22T05:57:53;26.80;99.90
8595;DHT22;4335;48.860;9.198;2023-06-22T06:00:24;27.00;99.90
8595;DHT22;4335;48.860;9.198;2023-06-22T06:02:51;27.00;99.90
8595;DHT22;4335;48.860;9.198;2023-06-22T06:05:22;26.90;99.90
8595;DHT22;4335;48.860;9.198;2023-06-22T06:07:51;26.60;99.90
8595;DHT22;4335;48.860;9.198;2023-06-22T06:10:18;26.50;99.90
8595;DHT22;4335;48.860;9.198;2023-06-22T06:12:47;26.60;99.90
8595;DHT22;4335;48.860;9.198;2023-06-22T06:15:21;26.70;99.90
8595;DHT22;4335;48.860;9.198;2023-06-22T06:17:48;26.70;99.90
8595;DHT22;4335;48.860;9.198;2023-06-22T06:20:18;26.70;99.90
8595;DHT22;4335;48.860;9.198;2023-06-22T06:22:46;26.80;99.90
8595;DHT22;4335;48.860;9.198;2023-06-22T06:25:19;26.90;99.90
8595;DHT22;4335;48.860;9.198;2023-06-22T06:27:50;27.20;99.90
8595;DHT22;4335;48.860;9.198;2023-06-22T06:30:20;27.50;99.90
8595;DHT22;4335;48.860;9.198;2023-06-22T06:32:48;27.70;99.90
8595;DHT22;4335;48.860;9.198;2023-06-22T06:35:15;28.00;99.90
8595;DHT22;4335;48.860;9.198;2023-06-22T06:37:50;28.50;99.90
8595;DHT22;4335;48.860;9.198;2023-06-22T06:40:18;28.70;99.90
8595;DHT22;4335;48.860;9.198;2023-06-22T06:42:51;29.30;99.90
8595;DHT22;4335;48.860;9.198;2023-06-22T06:45:20;30.10;99.90
8595;DHT22;4335;48.860;9.198;2023-06-22T06:47:52;30.80;99.90
8595;DHT22;4335;48.860;9.198;2023-06-22T06:50:21;31.00;99.90
8595;DHT22;4335;48.860;9.198;2023-06-22T06:52:48;31.50;99.90
8595;DHT22;4335;48.860;9.198;2023-06-22T06:55:17;31.90;99.90
8595;DHT22;4335;48.860;9.198;2023-06-22T06:57:53;32.80;99.90
8595;DHT22;4335;48.860;9.198;2023-06-22T07:00:24;33.10;99.90
8595;DHT22;4335;48.860;9.198;2023-06-22T07:02:52;33.30;99.90
8595;DHT22;4335;48.860;9.198;2023-06-22T07:05:26;33.70;99.90
8595;DHT22;4335;48.860;9.198;2023-06-22T07:07:54;33.70;99.90
8595;DHT22;4335;48.860;9.198;2023-06-22T07:10:24;33.80;99.90
8595;DHT22;4335;48.860;9.198;2023-06-22T07:12:56;34.40;99.90
8595;DHT22;4335;48.860;9.198;2023-06-22T07:15:27;34.80;99.50
8595;DHT22;4335;48.860;9.198;2023-06-22T07:18:01;35.00;98.00
8595;DHT22;4335;48.860;9.198;2023-06-22T07:20:37;35.30;97.10
8595;DHT22;4335;48.860;9.198;2023-06-22T07:23:11;35.20;96.10
8595;DHT22;4335;48.860;9.198;2023-06-22T07:25:47;35.40;95.70
8595;DHT22;4335;48.860;9.198;2023-06-22T07:28:18;35.70;94.60
8595;DHT22;4335;48.860;9.198;2023-06-22T07:30:51;35.70;93.90
8595;DHT22;4335;48.860;9.198;2023-06-22T07:33:21;36.10;93.00
8595;DHT22;4335;48.860;9.198;2023-06-22T07:35:49;36.00;92.80
8595;DHT22;4335;48.860;9.198;2023-06-22T07:38:18;36.00;92.20
8595;DHT22;4335;48.860;9.198;2023-06-22T07:40:45;35.80;91.10
8595;DHT22;4335;48.860;9.198;2023-06-22T07:43:13;35.90;91.40
8595;DHT22;4335;48.860;9.198;2023-06-22T07:45:48;36.10;91.30
8595;DHT22;4335;48.860;9.198;2023-06-22T07:48:20;35.90;91.00
8595;DHT22;4335;48.860;9.198;2023-06-22T07:50:49;35.70;91.30
8595;DHT22;4335;48.860;9.198;2023-06-22T07:53:16;35.60;92.10
8595;DHT22;4335;48.860;9.198;2023-06-22T07:55:50;35.60;91.80
8595;DHT22;4335;48.860;9.198;2023-06-22T07:58:20;35.40;92.00
8595;DHT22;4335;48.860;9.198;2023-06-22T08:00:51;35.70;92.30
8595;DHT22;4335;48.860;9.198;2023-06-22T08:03:28;35.60;91.20
8595;DHT22;4335;48.860;9.198;2023-06-22T08:06:01;35.40;91.20
8595;DHT22;4335;48.860;9.198;2023-06-22T08:08:31;35.50;90.60
8595;DHT22;4335;48.860;9.198;2023-06-22T08:10:59;35.20;91.10
8595;DHT22;4335;48.860;9.198;2023-06-22T08:13:26;35.90;90.30
8595;DHT22;4335;48.860;9.198;2023-06-22T08:15:56;36.50;89.60
8595;DHT22;4335;48.860;9.198;2023-06-22T08:18:23;37.10;88.40
8595;DHT22;4335;48.860;9.198;2023-06-22T08:20:50;37.80;86.00
8595;DHT22;4335;48.860;9.198;2023-06-22T08:23:21;38.60;82.60
8595;DHT22;4335;48.860;9.198;2023-06-22T08:25:48;39.40;79.90
8595;DHT22;4335;48.860;9.198;2023-06-22T08:28:16;40.10;77.00
8595;DHT22;4335;48.860;9.198;2023-06-22T08:30:43;40.60;73.70
8595;DHT22;4335;48.860;9.198;2023-06-22T08:33:15;40.60;71.10
8595;DHT22;4335;48.860;9.198;2023-06-22T08:35:43;39.80;69.60
8595;DHT22;4335;48.860;9.198;2023-06-22T08:38:19;38.70;70.90
8595;DHT22;4335;48.860;9.198;2023-06-22T08:40:50;37.70;72.90
8595;DHT22;4335;48.860;9.198;2023-06-22T08:43:17;36.80;75.80
8595;DHT22;4335;48.860;9.198;2023-06-22T08:45:52;36.10;78.60
8595;DHT22;4335;48.860;9.198;2023-06-22T08:48:20;35.20;81.70
8595;DHT22;4335;48.860;9.198;2023-06-22T08:50:48;34.40;83.90
8595;DHT22;4335;48.860;9.198;2023-06-22T08:53:15;33.80;85.70
8595;DHT22;4335;48.860;9.198;2023-06-22T08:55:43;33.10;88.70
8595;DHT22;4335;48.860;9.198;2023-06-22T08:58:12;33.10;90.30
8595;DHT22;4335;48.860;9.198;2023-06-22T09:00:39;33.50;90.70
8595;DHT22;4335;48.860;9.198;2023-06-22T09:03:12;34.20;90.50
8595;DHT22;4335;48.860;9.198;2023-06-22T09:05:41;35.90;87.60
8595;DHT22;4335;48.860;9.198;2023-06-22T09:08:14;36.80;81.90
8595;DHT22;4335;48.860;9.198;2023-06-22T09:10:45;37.30;80.20
8595;DHT22;4335;48.860;9.198;2023-06-22T09:13:12;38.00;79.30
8595;DHT22;4335;48.860;9.198;2023-06-22T09:15:43;38.30;77.80
8595;DHT22;4335;48.860;9.198;2023-06-22T09:18:13;38.60;76.20
8595;DHT22;4335;48.860;9.198;2023-06-22T09:20:43;39.10;74.80
8595;DHT22;4335;48.860;9.198;2023-06-22T09:23:10;38.80;74.60
8595;DHT22;4335;48.860;9.198;2023-06-22T09:25:38;37.60;75.30
8595;DHT22;4335;48.860;9.198;2023-06-22T09:28:13;37.10;77.30
8595;DHT22;4335;48.860;9.198;2023-06-22T09:30:40;37.00;78.20
8595;DHT22;4335;48.860;9.198;2023-06-22T09:33:14;37.60;77.10
8595;DHT22;4335;48.860;9.198;2023-06-22T09:35:46;38.20;76.60
8595;DHT22;4335;48.860;9.198;2023-06-22T09:38:13;38.40;73.80
8595;DHT22;4335;48.860;9.198;2023-06-22T09:40:41;38.90;73.10
8595;DHT22;4335;48.860;9.198;2023-06-22T09:43:09;40.20;68.90
8595;DHT22;4335;48.860;9.198;2023-06-22T09:45:39;41.00;67.20
8595;DHT22;4335;48.860;9.198;2023-06-22T09:48:09;41.90;63.70
8595;DHT22;4335;48.860;9.198;2023-06-22T09:50:47;42.40;61.90
8595;DHT22;4335;48.860;9.198;2023-06-22T09:53:14;42.80;60.00
8595;DHT22;4335;48.860;9.198;2023-06-22T09:55:48;42.50;59.00
8595;DHT22;4335;48.860;9.198;2023-06-22T09:58:15;42.90;59.00
8595;DHT22;4335;48.860;9.198;2023-06-22T10:00:43;42.00;59.20
8595;DHT22;4335;48.860;9.198;2023-06-22T10:03:12;41.00;59.60
8595;DHT22;4335;48.860;9.198;2023-06-22T10:05:39;40.90;60.40
8595;DHT22;4335;48.860;9.198;2023-06-22T10:08:11;41.10;61.30
8595;DHT22;4335;48.860;9.198;2023-06-22T10:10:44;40.90;61.20
8595;DHT22;4335;48.860;9.198;2023-06-22T10:13:12;40.10;62.50
8595;DHT22;4335;48.860;9.198;2023-06-22T10:15:43;39.70;63.70
8595;DHT22;4335;48.860;9.198;2023-06-22T10:18:15;38.60;64.60
8595;DHT22;4335;48.860;9.198;2023-06-22T10:20:43;37.60;67.20
8595;DHT22;4335;48.860;9.198;2023-06-22T10:23:12;36.50;69.70
8595;DHT22;4335;48.860;9.198;2023-06-22T10:25:39;35.50;72.70
8595;DHT22;4335;48.860;9.198;2023-06-22T10:28:10;35.00;74.60
8595;DHT22;4335;48.860;9.198;2023-06-22T10:30:38;34.80;76.90
8595;DHT22;4335;48.860;9.198;2023-06-22T10:33:07;34.90;76.70
8595;DHT22;4335;48.860;9.198;2023-06-22T10:35:34;35.20;76.10
8595;DHT22;4335;48.860;9.198;2023-06-22T10:38:03;35.20;76.50
8595;DHT22;4335;48.860;9.198;2023-06-22T10:40:32;35.40;75.20
8595;DHT22;4335;48.860;9.198;2023-06-22T10:43:02;35.50;74.40
8595;DHT22;4335;48.860;9.198;2023-06-22T10:45:30;35.60;74.40
8595;DHT22;4335;48.860;9.198;2023-06-22T10:48:00;35.30;76.10
8595;DHT22;4335;48.860;9.198;2023-06-22T10:50:27;35.00;76.70
8595;DHT22;4335;48.860;9.198;2023-06-22T10:52:55;34.70;76.70
8595;DHT22;4335;48.860;9.198;2023-06-22T10:55:22;34.70;77.70
8595;DHT22;4335;48.860;9.198;2023-06-22T10:57:54;34.60;78.50
8595;DHT22;4335;48.860;9.198;2023-06-22T11:00:21;34.40;79.50
8595;DHT22;4335;48.860;9.198;2023-06-22T11:02:49;34.30;79.70
8595;DHT22;4335;48.860;9.198;2023-06-22T11:05:16;34.20;80.90
8595;DHT22;4335;48.860;9.198;2023-06-22T11:07:44;34.20;81.60
8595;DHT22;4335;48.860;9.198;2023-06-22T11:10:14;34.00;82.10
8595;DHT22;4335;48.860;9.198;2023-06-22T11:12:43;33.90;82.90
8595;DHT22;4335;48.860;9.198;2023-06-22T11:15:12;33.70;83.10
8595;DHT22;4335;48.860;9.198;2023-06-22T11:17:43;33.80;83.70
8595;DHT22;4335;48.860;9.198;2023-06-22T11:20:11;33.70;85.20
8595;DHT22;4335;48.860;9.198;2023-06-22T11:22:39;33.60;85.10
8595;DHT22;4335;48.860;9.198;2023-06-22T11:25:07;33.40;85.50
8595;DHT22;4335;48.860;9.198;2023-06-22T11:27:37;33.30;86.60
8595;DHT22;4335;48.860;9.198;2023-06-22T11:30:05;33.00;87.70
8595;DHT22;4335;48.860;9.198;2023-06-22T11:32:34;32.90;89.30
8595;DHT22;4335;48.860;9.198;2023-06-22T11:35:02;32.60;90.00
8595;DHT22;4335;48.860;9.198;2023-06-22T11:37:29;32.50;90.50
8595;DHT22;4335;48.860;9.198;2023-06-22T11:39:56;32.50;91.40
8595;DHT22;4335;48.860;9.198;2023-06-22T11:42:24;32.50;92.90
8595;DHT22;4335;48.860;9.198;2023-06-22T11:44:51;32.40;91.30
8595;DHT22;4335;48.860;9.198;2023-06-22T11:47:19;32.40;91.30
8595;DHT22;4335;48.860;9.198;2023-06-22T11:49:48;32.40;92.20
8595;DHT22;4335;48.860;9.198;2023-06-22T11:52:18;32.40;93.20
8595;DHT22;4335;48.860;9.198;2023-06-22T11:54:49;32.50;93.50
8595;DHT22;4335;48.860;9.198;2023-06-22T11:57:22;32.60;94.70
8595;DHT22;4335;48.860;9.198;2023-06-22T11:59:50;32.60;94.10
8595;DHT22;4335;48.860;9.198;2023-06-22T12:02:20;32.60;93.00
8595;DHT22;4335;48.860;9.198;2023-06-22T12:04:49;32.70;93.90
8595;DHT22;4335;48.860;9.198;2023-06-22T12:07:18;32.70;93.80
8595;DHT22;4335;48.860;9.198;2023-06-22T12:09:45;32.70;92.90
8595;DHT22;4335;48.860;9.198;2023-06-22T12:12:16;32.60;94.80
8595;DHT22;4335;48.860;9.198;2023-06-22T12:14:55;32.40;96.00
8595;DHT22;4335;48.860;9.198;2023-06-22T12:17:23;32.30;97.60
8595;DHT22;4335;48.860;9.198;2023-06-22T12:19:51;32.20;98.50
8595;DHT22;4335;48.860;9.198;2023-06-22T12:22:19;32.00;98.90
8595;DHT22;4335;48.860;9.198;2023-06-22T12:24:46;31.80;98.80
8595;DHT22;4335;48.860;9.198;2023-06-22T12:27:14;31.80;99.80
8595;DHT22;4335;48.860;9.198;2023-06-22T12:29:45;31.70;99.90
8595;DHT22;4335;48.860;9.198;2023-06-22T12:32:12;31.70;99.90
8595;DHT22;4335;48.860;9.198;2023-06-22T12:34:41;31.60;99.90
8595;DHT22;4335;48.860;9.198;2023-06-22T12:37:10;31.60;99.90
8595;DHT22;4335;48.860;9.198;2023-06-22T12:39:40;31.50;99.90
8595;DHT22;4335;48.860;9.198;2023-06-22T12:42:08;31.60;99.90
8595;DHT22;4335;48.860;9.198;2023-06-22T12:44:38;31.70;99.90
8595;DHT22;4335;48.860;9.198;2023-06-22T12:47:06;31.60;99.90
8595;DHT22;4335;48.860;9.198;2023-06-22T12:49:40;31.50;99.90
8595;DHT22;4335;48.860;9.198;2023-06-22T12:52:10;31.40;99.90
8595;DHT22;4335;48.860;9.198;2023-06-22T12:54:41;31.30;99.90
8595;DHT22;4335;48.860;9.198;2023-06-22T12:57:08;31.20;99.90
8595;DHT22;4335;48.860;9.198;2023-06-22T12:59:43;31.20;99.90
8595;DHT22;4335;48.860;9.198;2023-06-22T13:02:12;31.10;99.90
8595;DHT22;4335;48.860;9.198;2023-06-22T13:04:40;31.10;99.90
8595;DHT22;4335;48.860;9.198;2023-06-22T13:07:10;31.10;99.90
8595;DHT22;4335;48.860;9.198;2023-06-22T13:09:37;31.10;99.90
8595;DHT22;4335;48.860;9.198;2023-06-22T13:12:05;31.10;99.90
8595;DHT22;4335;48.860;9.198;2023-06-22T13:14:33;31.00;99.90
8595;DHT22;4335;48.860;9.198;2023-06-22T13:17:00;31.00;99.90
8595;DHT22;4335;48.860;9.198;2023-06-22T13:19:30;31.00;99.90
8595;DHT22;4335;48.860;9.198;2023-06-22T13:22:00;31.00;99.90
8595;DHT22;4335;48.860;9.198;2023-06-22T13:24:31;30.90;99.90
8595;DHT22;4335;48.860;9.198;2023-06-22T13:27:01;30.90;99.90
8595;DHT22;4335;48.860;9.198;2023-06-22T13:29:28;31.00;99.90
8595;DHT22;4335;48.860;9.198;2023-06-22T13:31:58;31.00;99.90
8595;DHT22;4335;48.860;9.198;2023-06-22T13:34:25;31.20;99.90
8595;DHT22;4335;48.860;9.198;2023-06-22T13:36:55;31.20;99.90
8595;DHT22;4335;48.860;9.198;2023-06-22T13:39:22;31.30;99.90
8595;DHT22;4335;48.860;9.198;2023-06-22T13:41:51;31.40;99.90
8595;DHT22;4335;48.860;9.198;2023-06-22T13:44:18;31.60;99.90
8595;DHT22;4335;48.860;9.198;2023-06-22T13:46:48;31.70;99.90
8595;DHT22;4335;48.860;9.198;2023-06-22T13:49:15;31.70;99.90
8595;DHT22;4335;48.860;9.198;2023-06-22T13:51:45;31.80;99.90
8595;DHT22;4335;48.860;9.198;2023-06-22T13:54:14;31.80;99.90
8595;DHT22;4335;48.860;9.198;2023-06-22T13:56:41;31.80;99.90
8595;DHT22;4335;48.860;9.198;2023-06-22T13:59:10;31.80;99.90
8595;DHT22;4335;48.860;9.198;2023-06-22T14:01:39;31.80;99.90
8595;DHT22;4335;48.860;9.198;2023-06-22T14:04:07;31.80;99.90
8595;DHT22;4335;48.860;9.198;2023-06-22T14:06:35;31.70;99.90
8595;DHT22;4335;48.860;9.198;2023-06-22T14:09:02;31.70;99.90
8595;DHT22;4335;48.860;9.198;2023-06-22T14:11:35;31.80;99.90
8595;DHT22;4335;48.860;9.198;2023-06-22T14:14:06;31.80;99.90
8595;DHT22;4335;48.860;9.198;2023-06-22T14:16:35;31.80;99.90
8595;DHT22;4335;48.860;9.198;2023-06-22T14:19:05;31.80;99.90
8595;DHT22;4335;48.860;9.198;2023-06-22T14:21:32;31.90;99.90
8595;DHT22;4335;48.860;9.198;2023-06-22T14:24:00;31.90;99.90
8595;DHT22;4335;48.860;9.198;2023-06-22T14:26:27;31.90;99.90
8595;DHT22;4335;48.860;9.198;2023-06-22T14:28:54;31.90;99.90
8595;DHT22;4335;48.860;9.198;2023-06-22T14:31:22;31.90;99.90
8595;DHT22;4335;48.860;9.198;2023-06-22T14:33:51;31.90;99.90
8595;DHT22;4335;48.860;9.198;2023-06-22T14:36:18;32.00;99.90
8595;DHT22;4335;48.860;9.198;2023-06-22T14:38:49;31.80;99.90
8595;DHT22;4335;48.860;9.198;2023-06-22T14:41:16;31.90;99.90
8595;DHT22;4335;48.860;9.198;2023-06-22T14:43:47;31.90;99.90
8595;DHT22;4335;48.860;9.198;2023-06-22T14:46:15;31.90;99.90
8595;DHT22;4335;48.860;9.198;2023-06-22T14:48:42;32.00;99.90
8595;DHT22;4335;48.860;9.198;2023-06-22T14:51:14;32.00;99.90
8595;DHT22;4335;48.860;9.198;2023-06-22T14:53:45;31.90;99.90
8595;DHT22;4335;48.860;9.198;2023-06-22T14:56:13;31.80;99.90
8595;DHT22;4335;48.860;9.198;2023-06-22T14:58:48;31.80;99.90
8595;DHT22;4335;48.860;9.198;2023-06-22T15:01:17;31.70;99.90
8595;DHT22;4335;48.860;9.198;2023-06-22T15:03:44;31.60;99.90
8595;DHT22;4335;48.860;9.198;2023-06-22T15:06:13;31.50;99.90
8595;DHT22;4335;48.860;9.198;2023-06-22T15:08:42;31.50;99.90
8595;DHT22;4335;48.860;9.198;2023-06-22T15:11:09;31.40;98.20
8595;DHT22;4335;48.860;9.198;2023-06-22T15:13:39;31.30;93.40
8595;DHT22;4335;48.860;9.198;2023-06-22T15:16:06;31.40;92.70
8595;DHT22;4335;48.860;9.198;2023-06-22T15:18:36;31.30;94.00
8595;DHT22;4335;48.860;9.198;2023-06-22T15:21:04;31.40;92.40
8595;DHT22;4335;48.860;9.198;2023-06-22T15:23:34;31.50;90.80
8595;DHT22;4335;48.860;9.198;2023-06-22T15:26:02;31.50;89.90
8595;DHT22;4335;48.860;9.198;2023-06-22T15:28:33;31.40;89.00
8595;DHT22;4335;48.860;9.198;2023-06-22T15:31:03;31.50;91.60
8595;DHT22;4335;48.860;9.198;2023-06-22T15:33:30;31.50;86.80
8595;DHT22;4335;48.860;9.198;2023-06-22T15:35:58;31.60;87.70
8595;DHT22;4335;48.860;9.198;2023-06-22T15:38:29;31.50;87.00
8595;DHT22;4335;48.860;9.198;2023-06-22T15:41:08;31.40;89.70
8595;DHT22;4335;48.860;9.198;2023-06-22T15:43:38;31.30;90.60
8595;DHT22;4335;48.860;9.198;2023-06-22T15:46:05;31.30;88.60
8595;DHT22;4335;48.860;9.198;2023-06-22T15:48:32;31.30;87.10
8595;DHT22;4335;48.860;9.198;2023-06-22T15:51:02;31.30;86.00
8595;DHT22;4335;48.860;9.198;2023-06-22T15:53:30;31.30;86.20
8595;DHT22;4335;48.860;9.198;2023-06-22T15:55:57;31.20;85.70
8595;DHT22;4335;48.860;9.198;2023-06-22T15:58:29;31.30;84.00
8595;DHT22;4335;48.860;9.198;2023-06-22T16:00:56;31.30;85.60
8595;DHT22;4335;48.860;9.198;2023-06-22T16:03:23;31.40;85.30
8595;DHT22;4335;48.860;9.198;2023-06-22T16:05:51;31.30;85.20
8595;DHT22;4335;48.860;9.198;2023-06-22T16:08:20;31.20;83.80
8595;DHT22;4335;48.860;9.198;2023-06-22T16:10:51;31.20;85.50
8595;DHT22;4335;48.860;9.198;2023-06-22T16:13:21;31.20;85.70
8595;DHT22;4335;48.860;9.198;2023-06-22T16:15:53;31.00;90.00
8595;DHT22;4335;48.860;9.198;2023-06-22T16:18:20;31.00;87.30
8595;DHT22;4335;48.860;9.198;2023-06-22T16:20:48;31.00;86.20